Time;durP1;ratioP1;P1;durP2;ratioP2;P2;SDS_P1;SDS_P2;PMS_P1;PMS_P2;Temp;Humidity;BMP_temperature;BMP_pressure;BME280_temperature;BME280_humidity;BME280_pressure;Samples;Min_cycle;Max_cycle;Signal;HPM_P1;HPM_P2
2023/08/19 00:00:22;;;;;;;7.20;4.03;;;;;;;25.39;54.86;99888.66;5118409;28;20063;-68
2023/08/19 00:02:47;;;;;;;7.53;4.22;;;;;;;25.27;56.15;99881.75;5117587;28;20364;-68
2023/08/19 00:05:13;;;;;;;5.75;3.85;;;;;;;25.16;57.07;99871.88;5118010;28;20047;-68
2023/08/19 00:07:39;;;;;;;5.18;4.20;;;;;;;25.18;56.66;99872.44;5117557;28;20255;-67
2023/08/19 00:10:05;;;;;;;5.00;3.95;;;;;;;25.14;57.40;99870.25;5117537;28;20057;-68
2023/08/19 00:12:31;;;;;;;8.68;4.85;;;;;;;25.22;57.83;99879.81;5117148;28;20277;-68
2023/08/19 00:14:57;;;;;;;5.32;4.35;;;;;;;25.27;57.49;99879.03;5117863;28;20310;-68
2023/08/19 00:17:23;;;;;;;5.43;3.75;;;;;;;25.27;57.05;99868.22;5117943;28;20064;-68
2023/08/19 00:19:49;;;;;;;6.00;4.43;;;;;;;25.30;56.48;99875.81;5118729;28;20035;-67
2023/08/19 00:22:14;;;;;;;7.57;4.90;;;;;;;25.23;57.11;99881.44;5118370;28;20051;-69
2023/08/19 00:24:40;;;;;;;8.35;5.07;;;;;;;25.17;57.47;99879.75;5119340;28;20043;-68
2023/08/19 00:27:05;;;;;;;5.65;4.40;;;;;;;25.11;57.67;99876.19;5118525;28;20378;-67
2023/08/19 00:29:30;;;;;;;6.05;4.13;;;;;;;25.03;57.59;99875.81;5117801;28;20035;-68
2023/08/19 00:31:56;;;;;;;6.63;4.40;;;;;;;25.01;57.60;99875.25;5118187;28;20043;-68
2023/08/19 00:34:21;;;;;;;7.07;5.03;;;;;;;24.98;57.90;99873.84;5121045;28;20067;-68
2023/08/19 00:36:48;;;;;;;5.95;4.20;;;;;;;25.01;58.08;99870.63;5121826;28;20047;-69
2023/08/19 00:39:13;;;;;;;5.38;4.60;;;;;;;24.98;58.34;99870.31;5122235;28;20033;-68
2023/08/19 00:41:38;;;;;;;7.25;4.90;;;;;;;25.02;58.44;99869.56;5121698;28;20067;-69
2023/08/19 00:44:04;;;;;;;8.60;4.53;;;;;;;25.06;58.73;99873.41;5122050;28;20058;-68
2023/08/19 00:46:30;;;;;;;9.93;4.60;;;;;;;25.05;58.51;99871.78;5122092;28;20296;-68
2023/08/19 00:48:57;;;;;;;5.93;4.47;;;;;;;25.04;57.92;99870.13;5122256;28;20325;-68
2023/08/19 00:51:23;;;;;;;9.48;4.63;;;;;;;25.09;58.99;99883.75;5121938;28;20043;-67
2023/08/19 00:53:49;;;;;;;5.65;4.00;;;;;;;25.03;57.29;99881.22;5122267;28;20047;-67
2023/08/19 00:56:15;;;;;;;9.57;4.60;;;;;;;24.96;57.66;99894.91;5121809;28;20084;-68
2023/08/19 00:58:41;;;;;;;5.55;4.63;;;;;;;24.81;57.91;99892.00;5122017;28;20039;-68
2023/08/19 01:01:07;;;;;;;7.82;4.30;;;;;;;24.56;59.37;99884.38;5121810;28;20214;-68
2023/08/19 01:03:33;;;;;;;6.68;4.28;;;;;;;24.52;60.17;99886.75;5121432;28;20077;-68
2023/08/19 01:06:21;;;;;;;8.23;5.57;;;;;;;24.57;59.08;99883.28;5120889;28;20040;-68
2023/08/19 01:09:28;;;;;;;5.00;4.28;;;;;;;24.48;60.14;99884.78;5120946;28;20044;-68
2023/08/19 01:12:14;;;;;;;7.50;4.88;;;;;;;24.27;60.23;99883.69;5090587;28;20055;-69
2023/08/19 01:14:54;;;;;;;7.30;4.78;;;;;;;24.19;60.20;99884.06;5120424;28;20378;-67
2023/08/19 01:17:25;;;;;;;5.22;4.68;;;;;;;24.14;60.46;99873.19;5120636;28;20058;-68
2023/08/19 01:19:52;;;;;;;5.55;4.72;;;;;;;24.17;60.92;99870.78;5121154;28;20344;-68
2023/08/19 01:22:27;;;;;;;7.25;5.03;;;;;;;24.21;60.47;99881.94;5120973;28;20078;-68
2023/08/19 01:24:52;;;;;;;8.57;4.70;;;;;;;24.26;60.20;99878.50;5120658;28;20023;-68
2023/08/19 01:27:23;;;;;;;7.50;5.13;;;;;;;24.17;59.69;99880.78;5120559;28;20061;-68
2023/08/19 01:29:49;;;;;;;5.78;4.60;;;;;;;23.92;60.47;99881.19;5120567;28;20046;-68
2023/08/19 01:32:15;;;;;;;6.25;4.63;;;;;;;23.97;60.49;99869.66;5120064;28;20349;-67
2023/08/19 01:34:41;;;;;;;15.85;5.50;;;;;;;23.89;60.48;99879.78;5120175;28;20028;-67
2023/08/19 01:37:13;;;;;;;10.70;5.25;;;;;;;23.91;61.12;99876.84;5120260;28;20055;-68
2023/08/19 01:39:40;;;;;;;6.60;5.60;;;;;;;23.80;61.85;99869.63;5120371;28;20356;-68
2023/08/19 01:42:08;;;;;;;5.80;4.88;;;;;;;23.91;61.31;99860.63;5120284;28;20035;-67
2023/08/19 01:44:34;;;;;;;7.90;5.75;;;;;;;23.78;61.96;99860.94;5119763;28;20085;-67
2023/08/19 01:47:12;;;;;;;6.90;4.70;;;;;;;23.82;62.62;99865.63;5120148;28;20039;-68
2023/08/19 01:49:37;;;;;;;5.63;4.72;;;;;;;23.81;60.73;99858.56;5120172;28;20214;-68
2023/08/19 01:52:03;;;;;;;7.53;5.35;;;;;;;23.82;61.47;99851.28;5120507;28;20046;-68
2023/08/19 01:54:28;;;;;;;5.68;4.60;;;;;;;23.49;61.10;99852.88;5121436;28;20383;-68
2023/08/19 01:56:54;;;;;;;6.68;4.97;;;;;;;23.42;62.85;99848.69;5120730;28;20325;-68
2023/08/19 01:59:19;;;;;;;5.63;4.82;;;;;;;23.50;62.71;99851.81;5120544;28;20035;-67
2023/08/19 02:01:45;;;;;;;6.60;5.13;;;;;;;23.54;62.91;99854.84;5119997;28;20040;-68
2023/08/19 02:04:10;;;;;;;5.65;5.05;;;;;;;23.54;62.16;99846.72;5120444;28;20028;-68
2023/08/19 02:06:36;;;;;;;11.00;5.20;;;;;;;23.54;62.15;99841.31;5120686;28;20044;-68
2023/08/19 02:09:01;;;;;;;7.15;5.55;;;;;;;23.60;62.08;99853.91;5120153;28;20020;-67
2023/08/19 02:11:27;;;;;;;5.93;5.28;;;;;;;23.37;61.61;99860.22;5120238;28;20035;-69
2023/08/19 02:13:53;;;;;;;8.55;5.50;;;;;;;23.24;63.14;99855.94;5120293;28;20047;-67
2023/08/19 02:16:18;;;;;;;6.38;5.25;;;;;;;23.34;63.34;99855.31;5119942;28;20043;-68
2023/08/19 02:18:44;;;;;;;5.85;5.13;;;;;;;23.32;63.15;99867.41;5120556;28;20043;-67
2023/08/19 02:21:09;;;;;;;5.45;4.95;;;;;;;23.31;62.90;99866.59;5120490;28;20686;-68
2023/08/19 02:23:34;;;;;;;7.97;5.38;;;;;;;23.36;63.33;99865.88;5120582;28;20039;-67
2023/08/19 02:26:00;;;;;;;6.82;5.38;;;;;;;23.39;63.44;99855.41;5119681;28;20032;-67
2023/08/19 02:28:25;;;;;;;5.97;5.25;;;;;;;23.41;62.69;99869.47;5119426;28;20046;-68
2023/08/19 02:30:51;;;;;;;5.72;4.80;;;;;;;23.42;62.08;99865.72;5119098;28;20207;-67
2023/08/19 02:33:16;;;;;;;7.22;5.18;;;;;;;23.43;63.30;99878.16;5119361;28;20057;-67
2023/08/19 02:35:41;;;;;;;7.32;4.82;;;;;;;23.35;63.53;99872.34;5118883;28;20051;-68
2023/08/19 02:38:07;;;;;;;6.10;4.65;;;;;;;23.35;63.39;99872.34;5118994;28;20031;-67
2023/08/19 02:40:32;;;;;;;5.80;5.25;;;;;;;23.35;63.49;99872.34;5118966;28;20039;-68
2023/08/19 02:42:58;;;;;;;7.43;5.28;;;;;;;23.42;62.72;99875.72;5119719;28;20035;-68
2023/08/19 02:45:24;;;;;;;6.25;4.95;;;;;;;23.36;62.52;99877.50;5119266;28;20035;-68
2023/08/19 02:47:50;;;;;;;7.07;5.30;;;;;;;23.23;63.02;99877.78;5119317;28;20055;-68
2023/08/19 02:50:15;;;;;;;6.43;5.25;;;;;;;23.07;63.56;99884.78;5119685;28;20030;-67
2023/08/19 02:52:40;;;;;;;5.97;4.93;;;;;;;23.14;62.73;99887.34;5118979;28;20051;-67
2023/08/19 02:55:06;;;;;;;8.35;5.20;;;;;;;23.12;63.65;99886.75;5119845;28;20035;-68
2023/08/19 02:57:32;;;;;;;8.27;5.80;;;;;;;23.09;63.68;99879.13;5118774;28;20039;-68
2023/08/19 02:59:57;;;;;;;6.07;5.13;;;;;;;22.85;64.42;99876.47;5119827;28;20261;-67
2023/08/19 03:02:22;;;;;;;8.30;5.95;;;;;;;23.01;64.50;99868.72;5119700;28;20031;-67
2023/08/19 03:04:48;;;;;;;7.15;5.18;;;;;;;23.04;64.30;99863.66;5119980;28;20028;-68
2023/08/19 03:07:13;;;;;;;6.88;5.70;;;;;;;23.02;64.75;99867.66;5119600;28;20054;-67
2023/08/19 03:09:43;;;;;;;8.50;5.15;;;;;;;22.99;64.84;99863.56;5119318;28;20047;-67
2023/08/19 03:12:08;;;;;;;9.85;5.07;;;;;;;23.02;65.29;99854.16;5119088;28;20035;-68
2023/08/19 03:14:34;;;;;;;6.47;5.32;;;;;;;22.92;65.76;99849.38;5119173;28;20131;-68
2023/08/19 03:16:59;;;;;;;6.68;5.50;;;;;;;22.70;66.59;99851.03;5118813;28;20039;-67
2023/08/19 03:19:26;;;;;;;7.88;5.93;;;;;;;22.90;66.18;99855.00;5119357;28;20305;-68
2023/08/19 03:21:51;;;;;;;7.50;5.40;;;;;;;22.84;66.39;99850.53;5119539;28;20104;-68
2023/08/19 03:24:16;;;;;;;8.00;5.70;;;;;;;22.77;66.92;99852.53;5119081;28;20027;-68
2023/08/19 03:26:42;;;;;;;7.47;5.80;;;;;;;;;;5118900;28;20048;-68
2023/08/19 03:29:07;;;;;;;6.88;5.50;;;;;;;22.76;66.99;99863.56;5118832;28;20102;-68
2023/08/19 03:31:32;;;;;;;7.38;5.60;;;;;;;22.78;67.17;99873.06;5118148;28;20043;-68
2023/08/19 03:33:58;;;;;;;7.50;5.65;;;;;;;22.86;66.60;99871.91;5100731;28;20069;-67
2023/08/19 03:36:23;;;;;;;7.78;6.53;;;;;;;22.62;67.62;99868.41;5118686;28;20047;-68
2023/08/19 03:38:49;;;;;;;9.48;5.78;;;;;;;22.54;68.13;99882.25;5118859;28;20039;-67
2023/08/19 03:41:14;;;;;;;7.07;5.72;;;;;;;22.71;67.51;99880.47;5119119;28;20370;-68
2023/08/19 03:43:39;;;;;;;10.48;6.90;;;;;;;22.83;67.36;99880.47;5118544;28;20043;-68
2023/08/19 03:46:05;;;;;;;8.85;5.25;;;;;;;22.79;66.92;99884.69;5118661;28;20237;-68
2023/08/19 03:48:30;;;;;;;9.45;5.63;;;;;;;22.68;67.34;99894.44;5118488;28;20039;-68
2023/08/19 03:50:56;;;;;;;7.88;6.32;;;;;;;22.57;67.95;99903.38;5118023;28;20325;-68
2023/08/19 03:53:21;;;;;;;8.20;5.35;;;;;;;22.37;69.05;99895.66;5117997;28;20046;-68
2023/08/19 03:55:48;;;;;;;7.13;5.10;;;;;;;22.53;68.42;99899.50;5099046;28;20337;-67
2023/08/19 03:58:14;;;;;;;7.05;6.22;;;;;;;22.52;68.76;99906.78;5117630;28;20375;-68
2023/08/19 04:00:39;;;;;;;9.10;5.50;;;;;;;22.57;68.66;99903.38;5117678;28;20035;-69
2023/08/19 04:03:05;;;;;;;8.63;5.95;;;;;;;22.59;67.73;99903.97;5118749;28;20034;-69
2023/08/19 04:05:30;;;;;;;7.07;5.55;;;;;;;22.48;67.87;99897.53;5117929;28;20036;-68
2023/08/19 04:07:56;;;;;;;8.40;5.70;;;;;;;22.35;68.19;99889.66;5119150;28;20317;-69
2023/08/19 04:10:22;;;;;;;12.27;7.40;;;;;;;22.37;68.36;99882.16;5121893;28;20108;-68
2023/08/19 04:12:47;;;;;;;13.38;8.85;;;;;;;22.14;69.39;99885.69;5121813;28;20051;-69
2023/08/19 04:15:13;;;;;;;13.48;7.63;;;;;;;22.28;68.93;99891.66;5122011;28;20035;-68
2023/08/19 04:17:38;;;;;;;13.50;8.55;;;;;;;22.41;68.85;99891.44;5121782;28;20240;-68
2023/08/19 04:20:10;;;;;;;10.40;6.63;;;;;;;22.27;68.68;99874.66;5122350;28;20038;-69
2023/08/19 04:22:37;;;;;;;9.75;6.50;;;;;;;21.99;70.03;99861.84;5122984;28;20048;-69
2023/08/19 04:25:02;;;;;;;12.32;5.85;;;;;;;21.95;70.40;99862.53;5122787;28;20034;-68
2023/08/19 04:27:30;;;;;;;7.15;5.80;;;;;;;21.93;70.60;99853.88;5122283;28;20035;-68
2023/08/19 04:29:55;;;;;;;10.65;5.40;;;;;;;21.80;70.35;99857.56;5122989;28;20106;-69
2023/08/19 04:32:20;;;;;;;9.00;5.70;;;;;;;21.75;70.51;99865.53;5122038;28;20314;-69
2023/08/19 04:34:46;;;;;;;9.15;5.47;;;;;;;21.70;70.20;99851.13;5122158;28;20065;-69
2023/08/19 04:37:11;;;;;;;8.25;4.93;;;;;;;21.72;70.44;99857.91;5121993;28;20193;-69
2023/08/19 04:39:37;;;;;;;12.43;5.38;;;;;;;21.75;70.63;99862.03;5122287;28;20394;-69
2023/08/19 04:42:03;;;;;;;7.80;4.93;;;;;;;21.73;70.83;99858.75;5121998;28;20038;-68
2023/08/19 04:44:29;;;;;;;5.25;4.72;;;;;;;21.82;70.68;99865.44;5121130;28;20047;-68
2023/08/19 04:46:55;;;;;;;8.00;5.78;;;;;;;22.01;70.26;99868.88;5122079;28;20035;-69
2023/08/19 04:49:20;;;;;;;10.02;5.72;;;;;;;22.12;69.72;99882.41;5122740;28;20084;-68
2023/08/19 04:51:46;;;;;;;9.23;8.32;;;;;;;22.17;69.71;99885.22;5121263;28;20046;-69
2023/08/19 04:54:11;;;;;;;8.73;7.88;;;;;;;22.27;69.42;99885.44;5121382;28;20036;-68
2023/08/19 04:56:37;;;;;;;9.15;6.22;;;;;;;22.43;68.41;99893.88;5121249;28;20339;-69
2023/08/19 04:59:02;;;;;;;7.57;5.88;;;;;;;22.60;68.30;99900.22;5122073;28;20040;-69
2023/08/19 05:01:28;;;;;;;7.78;5.28;;;;;;;22.51;68.15;99907.03;5121387;28;20087;-68
2023/08/19 05:03:54;;;;;;;8.32;6.90;;;;;;;22.73;67.58;99913.44;5121468;28;20048;-68
2023/08/19 05:06:20;;;;;;;6.45;4.32;;;;;;;22.83;67.75;99910.19;5122368;28;20039;-68
2023/08/19 05:08:45;;;;;;;8.88;5.03;;;;;;;22.87;67.52;99917.56;5121826;28;20035;-69
2023/08/19 05:11:10;;;;;;;9.57;4.93;;;;;;;22.87;67.40;99922.97;5121788;28;20065;-68
2023/08/19 05:13:36;;;;;;;11.95;6.10;;;;;;;22.97;67.99;99926.97;5121977;28;20056;-69
2023/08/19 05:16:01;;;;;;;13.07;7.57;;;;;;;23.08;67.65;99931.50;5121604;28;20053;-69
2023/08/19 05:18:27;;;;;;;9.70;5.57;;;;;;;23.14;66.93;99925.16;5121901;28;20194;-69
2023/08/19 05:20:53;;;;;;;6.88;5.03;;;;;;;23.02;66.33;99936.00;5120804;28;20080;-69
2023/08/19 05:23:19;;;;;;;9.75;5.00;;;;;;;23.00;66.25;99934.59;5121606;28;20031;-69
2023/08/19 05:25:44;;;;;;;7.40;5.10;;;;;;;22.99;66.31;99922.16;5121282;28;20099;-68
2023/08/19 05:28:10;;;;;;;10.20;4.78;;;;;;;23.07;66.30;99929.88;5120449;28;20027;-68
2023/08/19 05:30:36;;;;;;;9.63;5.65;;;;;;;23.13;65.74;99918.94;5120400;28;20210;-68
2023/08/19 05:33:01;;;;;;;5.47;4.97;;;;;;;23.28;65.50;99925.69;5120237;28;20031;-69
2023/08/19 05:35:27;;;;;;;8.82;6.03;;;;;;;23.56;64.44;99923.84;5120269;28;20032;-69
2023/08/19 05:37:52;;;;;;;6.43;4.88;;;;;;;23.82;63.15;99927.81;5120145;28;20382;-69
2023/08/19 05:40:18;;;;;;;7.78;5.10;;;;;;;23.82;62.89;99925.09;5120711;28;20112;-69
2023/08/19 05:42:43;;;;;;;15.02;6.07;;;;;;;24.01;61.95;99925.72;5120545;28;20039;-70
2023/08/19 05:45:09;;;;;;;6.75;5.85;;;;;;;23.99;62.10;99932.44;5120049;28;20055;-68
2023/08/19 05:47:34;;;;;;;12.50;6.28;;;;;;;23.99;61.73;99933.28;5119979;28;20937;-68
2023/08/19 05:50:00;;;;;;;12.85;8.40;;;;;;;23.99;62.12;99933.28;5120211;28;20036;-68
2023/08/19 05:52:25;;;;;;;15.35;9.95;;;;;;;23.98;62.36;99937.03;5119839;28;20031;-72
2023/08/19 05:54:51;;;;;;;20.33;14.15;;;;;;;24.05;62.37;99939.59;5120387;28;20037;-68
2023/08/19 05:57:16;;;;;;;21.65;15.27;;;;;;;24.11;62.22;99931.31;5120322;28;20364;-69
2023/08/19 05:59:42;;;;;;;24.63;17.98;;;;;;;24.15;62.27;99926.22;5119983;28;20032;-68
2023/08/19 06:02:07;;;;;;;23.98;19.08;;;;;;;24.11;62.00;99936.72;5119778;28;20031;-68
2023/08/19 06:04:32;;;;;;;25.23;18.77;;;;;;;24.14;62.21;99925.41;5119881;28;20348;-68
2023/08/19 06:06:58;;;;;;;27.30;21.05;;;;;;;24.20;61.84;99931.72;5119691;28;20046;-67
2023/08/19 06:09:23;;;;;;;28.95;22.00;;;;;;;24.19;61.68;99933.59;5119472;28;20035;-68
2023/08/19 06:11:51;;;;;;;33.13;23.40;;;;;;;24.24;62.14;99927.44;5119496;28;20032;-67
2023/08/19 06:14:17;;;;;;;39.17;26.92;;;;;;;24.27;62.47;99921.56;5119312;28;20042;-68
2023/08/19 06:16:43;;;;;;;46.03;33.10;;;;;;;24.32;62.32;99916.22;5119188;28;20075;-68
2023/08/19 06:19:08;;;;;;;52.97;35.40;;;;;;;24.36;62.41;99919.25;5119472;28;20126;-68
2023/08/19 06:21:34;;;;;;;53.53;36.85;;;;;;;24.34;63.03;99919.50;5119437;28;20345;-68
2023/08/19 06:23:59;;;;;;;56.75;39.42;;;;;;;24.35;63.43;99915.75;5119462;28;20040;-68
2023/08/19 06:26:28;;;;;;;47.95;33.97;;;;;;;24.37;63.59;99910.06;5118937;28;20097;-68
2023/08/19 06:28:53;;;;;;;47.20;34.58;;;;;;;24.28;63.80;99911.56;5119342;28;20402;-69
2023/08/19 06:31:19;;;;;;;46.80;35.10;;;;;;;24.30;63.51;99899.44;5118903;28;20042;-68
2023/08/19 06:33:45;;;;;;;47.70;33.63;;;;;;;24.32;63.35;99896.47;5100508;28;20059;-68
2023/08/19 06:36:13;;;;;;;45.72;32.55;;;;;;;24.25;63.84;99895.78;5118919;28;20103;-68
2023/08/19 06:38:49;;;;;;;49.65;32.47;;;;;;;24.55;63.37;99904.38;5118932;28;20065;-68
2023/08/19 06:41:17;;;;;;;48.20;32.45;;;;;;;24.72;63.57;99907.03;5118902;28;20282;-69
2023/08/19 06:43:43;;;;;;;42.22;31.58;;;;;;;25.03;63.07;99908.31;5118953;28;20249;-68
2023/08/19 06:46:09;;;;;;;50.95;33.67;;;;;;;25.17;60.86;99900.63;5118887;28;20104;-68
2023/08/19 06:48:35;;;;;;;33.53;23.75;;;;;;;25.31;60.69;99921.66;5118677;28;20036;-69
2023/08/19 06:51:03;;;;;;;36.67;25.40;;;;;;;25.44;59.77;99910.41;5118561;28;20051;-69
2023/08/19 06:53:28;;;;;;;27.38;20.77;;;;;;;25.68;60.40;99908.22;5118443;28;20035;-68
2023/08/19 06:56:03;;;;;;;29.02;22.95;;;;;;;25.82;59.71;99905.91;5118502;28;20078;-68
2023/08/19 06:58:32;;;;;;;29.00;21.80;;;;;;;26.08;59.05;99901.53;5118455;28;20035;-69
2023/08/19 07:01:03;;;;;;;21.25;18.90;;;;;;;26.09;57.57;99905.88;5118815;28;20221;-68
2023/08/19 07:03:32;;;;;;;22.27;17.27;;;;;;;26.28;57.79;99906.28;5118768;28;20031;-68
2023/08/19 07:05:59;;;;;;;14.52;12.25;;;;;;;26.36;56.07;99903.94;5118624;28;20141;-68
2023/08/19 07:08:26;;;;;;;16.27;11.70;;;;;;;26.38;56.04;99899.06;5117933;28;20053;-68
2023/08/19 07:10:52;;;;;;;16.05;12.57;;;;;;;26.76;56.33;99902.53;5117716;28;20035;-69
2023/08/19 07:13:18;;;;;;;14.73;10.95;;;;;;;26.93;54.91;99900.44;5118541;28;20039;-68
2023/08/19 07:15:48;;;;;;;15.50;11.80;;;;;;;26.85;54.99;99902.84;5118044;28;20050;-68
2023/08/19 07:18:19;;;;;;;15.40;9.95;;;;;;;27.39;55.57;99900.63;5118328;28;20036;-68
2023/08/19 07:20:44;;;;;;;19.27;17.38;;;;;;;27.51;52.48;99903.09;5118478;28;20055;-68
2023/08/19 07:23:12;;;;;;;13.90;10.75;;;;;;;27.42;52.34;99894.66;5118162;28;20392;-67
2023/08/19 07:25:38;;;;;;;12.05;9.32;;;;;;;27.25;51.89;99900.34;5117995;28;20361;-67
2023/08/19 07:28:04;;;;;;;13.32;10.38;;;;;;;27.27;52.49;99905.50;5118036;28;20039;-68
2023/08/19 07:30:30;;;;;;;13.88;11.30;;;;;;;27.26;53.46;99907.41;5117855;28;20089;-68
2023/08/19 07:32:56;;;;;;;10.75;7.57;;;;;;;27.44;52.15;99911.53;5117941;28;20035;-69
2023/08/19 07:35:21;;;;;;;21.83;9.68;;;;;;;27.74;52.25;99908.06;5118920;28;20110;-68
2023/08/19 07:37:47;;;;;;;13.48;8.20;;;;;;;28.18;50.10;99911.06;5118098;28;20043;-68
2023/08/19 07:40:13;;;;;;;11.60;7.75;;;;;;;28.46;48.40;99906.97;5118163;28;20347;-67
2023/08/19 07:42:38;;;;;;;8.73;6.00;;;;;;;28.67;47.02;99909.66;5117786;28;20312;-67
2023/08/19 07:45:05;;;;;;;7.72;6.57;;;;;;;28.71;46.58;99906.09;5117980;28;20436;-68
2023/08/19 07:47:30;;;;;;;9.00;5.70;;;;;;;28.80;45.34;99903.59;5117817;28;20031;-67
2023/08/19 07:49:56;;;;;;;9.38;8.40;;;;;;;28.86;43.98;99914.25;5117614;28;20078;-70
2023/08/19 07:52:21;;;;;;;9.07;5.50;;;;;;;29.04;43.30;99904.63;5117634;28;20039;-67
2023/08/19 07:54:47;;;;;;;8.15;6.63;;;;;;;29.17;42.38;99912.22;5117293;28;20043;-67
2023/08/19 07:57:12;;;;;;;12.73;9.32;;;;;;;29.34;42.82;99909.13;5117710;28;20061;-67
2023/08/19 07:59:38;;;;;;;10.57;6.97;;;;;;;29.57;42.54;99906.84;5117935;28;20046;-68
2023/08/19 08:02:04;;;;;;;6.28;5.25;;;;;;;29.80;42.38;99903.41;5117912;28;20096;-68
2023/08/19 08:04:30;;;;;;;4.47;3.78;;;;;;;29.92;38.91;99889.38;5117722;28;20051;-68
2023/08/19 08:06:55;;;;;;;4.88;3.50;;;;;;;29.82;38.48;99887.53;5117742;28;20458;-68
2023/08/19 08:09:21;;;;;;;5.03;4.40;;;;;;;29.55;39.55;99896.22;5117170;28;20039;-67
2023/08/19 08:11:48;;;;;;;9.27;5.60;;;;;;;29.47;39.54;99891.34;5117560;28;20051;-67
2023/08/19 08:14:13;;;;;;;9.15;4.82;;;;;;;29.46;40.02;99890.53;5117675;28;20039;-69
2023/08/19 08:16:40;;;;;;;5.05;3.97;;;;;;;29.34;39.88;99891.94;5117315;28;20070;-68
2023/08/19 08:19:05;;;;;;;5.10;4.32;;;;;;;29.33;40.37;99893.06;5117432;28;20038;-69
2023/08/19 08:21:30;;;;;;;7.15;3.70;;;;;;;29.33;40.51;99896.59;5117862;28;20251;-68
2023/08/19 08:23:56;;;;;;;3.90;3.50;;;;;;;29.26;40.58;99898.00;5117607;28;20532;-68
2023/08/19 08:26:22;;;;;;;9.07;4.65;;;;;;;29.32;40.00;99902.34;5117424;28;20044;-69
2023/08/19 08:28:48;;;;;;;4.65;4.25;;;;;;;29.24;39.54;99895.56;5117560;28;20341;-68
2023/08/19 08:31:14;;;;;;;7.10;4.22;;;;;;;29.15;39.02;99899.97;5117543;28;20044;-68
2023/08/19 08:33:39;;;;;;;5.32;3.55;;;;;;;29.18;39.76;99896.69;5117408;28;20248;-68
2023/08/19 08:36:05;;;;;;;5.30;4.50;;;;;;;29.17;40.23;99895.06;5117277;28;20275;-69
2023/08/19 08:38:30;;;;;;;5.43;3.40;;;;;;;29.31;39.12;99901.50;5117345;28;20042;-68
2023/08/19 08:41:01;;;;;;;4.53;3.88;;;;;;;29.32;38.89;99900.41;5116851;28;20047;-68
2023/08/19 08:43:28;;;;;;;4.50;4.07;;;;;;;29.29;37.44;99887.34;5117160;28;20027;-68
2023/08/19 08:45:54;;;;;;;7.03;4.25;;;;;;;29.52;39.15;99894.06;5116694;28;20278;-69
2023/08/19 08:48:20;;;;;;;8.38;4.30;;;;;;;29.59;39.21;99880.91;5117497;28;20198;-69
2023/08/19 08:50:46;;;;;;;7.60;4.50;;;;;;;29.70;37.67;99882.47;5117152;28;20325;-68
2023/08/19 08:53:14;;;;;;;5.82;4.18;;;;;;;29.77;39.67;99879.41;5117602;27;20245;-69
2023/08/19 08:55:40;;;;;;;12.60;4.57;;;;;;;29.75;39.45;99876.13;5119713;28;20047;-69
2023/08/19 08:58:05;;;;;;;8.13;4.78;;;;;;;29.83;40.49;99881.81;5120792;28;20054;-68
2023/08/19 09:00:31;;;;;;;9.80;4.30;;;;;;;29.86;40.04;99878.50;5120962;28;20051;-69
2023/08/19 09:02:58;;;;;;;5.53;5.03;;;;;;;29.64;40.13;99880.06;5120828;28;20042;-68
2023/08/19 09:05:26;;;;;;;6.53;5.93;;;;;;;29.73;40.60;99870.16;5121176;28;20374;-69
2023/08/19 09:07:54;;;;;;;6.55;5.15;;;;;;;30.09;40.01;99873.41;5120391;28;20104;-69
2023/08/19 09:10:24;;;;;;;6.88;4.22;;;;;;;30.32;39.73;99869.94;5120644;28;20031;-69
2023/08/19 09:12:56;;;;;;;5.22;4.43;;;;;;;30.49;39.32;99864.00;5120514;28;20040;-67
2023/08/19 09:15:22;;;;;;;10.90;7.00;;;;;;;30.71;37.56;99863.50;5120774;28;20036;-68
2023/08/19 09:17:49;;;;;;;7.30;5.85;;;;;;;30.75;37.51;99867.28;5120661;28;20104;-68
2023/08/19 09:20:17;;;;;;;12.05;9.18;;;;;;;30.80;36.62;99861.75;5120697;28;20051;-69
2023/08/19 09:22:43;;;;;;;8.00;6.68;;;;;;;30.63;36.30;99862.25;5120503;28;20048;-68
2023/08/19 09:25:18;;;;;;;7.15;5.75;;;;;;;30.49;36.16;99858.53;5120557;28;20282;-67
2023/08/19 09:27:44;;;;;;;5.82;4.82;;;;;;;30.55;37.63;99859.31;5120047;28;20039;-68
2023/08/19 09:30:16;;;;;;;6.28;5.07;;;;;;;30.65;36.03;99856.47;5120155;28;20031;-69
2023/08/19 09:32:44;;;;;;;11.45;7.30;;;;;;;30.60;36.47;99860.09;5120123;28;20106;-68
2023/08/19 09:35:12;;;;;;;6.90;4.75;;;;;;;30.59;36.94;99863.13;5120496;28;20039;-69
2023/08/19 09:37:38;;;;;;;5.35;4.40;;;;;;;30.50;36.04;99855.53;5119659;28;20040;-70
2023/08/19 09:40:10;;;;;;;4.80;4.40;;;;;;;30.55;35.73;99859.31;5119900;28;20036;-69
2023/08/19 09:42:36;;;;;;;5.82;5.22;;;;;;;30.52;37.08;99848.94;5120102;28;20370;-67
2023/08/19 09:45:04;;;;;;;9.60;7.68;;;;;;;30.60;36.64;99843.69;5119656;28;20055;-69
2023/08/19 09:47:31;;;;;;;8.55;7.30;;;;;;;30.61;36.41;99841.78;5119570;28;20062;-70
2023/08/19 09:49:57;;;;;;;6.60;4.13;;;;;;;30.58;35.46;99839.59;5120369;28;20036;-69
2023/08/19 09:52:22;;;;;;;5.63;3.70;;;;;;;30.47;35.40;99839.72;5120171;28;20036;-68
2023/08/19 09:54:52;;;;;;;5.63;3.85;;;;;;;30.25;34.93;99846.78;5119892;28;20028;-69
2023/08/19 09:57:18;;;;;;;5.75;3.90;;;;;;;30.08;35.84;99839.84;5119926;28;20040;-70
2023/08/19 09:59:44;;;;;;;4.75;4.20;;;;;;;30.11;36.17;99839.25;5120003;28;20069;-68
2023/08/19 10:02:12;;;;;;;5.45;4.07;;;;;;;30.20;35.56;99831.28;5119570;28;20265;-69
2023/08/19 10:04:37;;;;;;;4.07;3.67;;;;;;;30.15;35.65;99840.31;5119515;28;20487;-68
2023/08/19 10:07:05;;;;;;;6.15;4.13;;;;;;;30.15;36.18;99832.13;5119304;28;20051;-69
2023/08/19 10:09:32;;;;;;;5.82;3.67;;;;;;;30.18;35.92;99831.56;5119335;28;20043;-69
2023/08/19 10:11:59;;;;;;;4.15;3.75;;;;;;;30.27;36.03;99822.75;5119279;28;20063;-69
2023/08/19 10:14:31;;;;;;;5.10;3.40;;;;;;;30.21;34.75;99830.19;5119623;28;20042;-68
2023/08/19 10:17:04;;;;;;;5.63;3.60;;;;;;;30.25;34.98;99835.88;5119301;28;20053;-70
2023/08/19 10:19:35;;;;;;;3.75;3.13;;;;;;;30.17;35.30;99835.41;5118426;28;20039;-68
2023/08/19 10:22:02;;;;;;;3.67;3.35;;;;;;;30.14;35.13;99840.59;5119176;28;20035;-69
2023/08/19 10:24:29;;;;;;;4.20;3.65;;;;;;;30.15;35.58;99832.13;5119328;28;20050;-68
2023/08/19 10:26:54;;;;;;;5.00;3.65;;;;;;;30.28;35.27;99829.84;5119331;28;20047;-69
2023/08/19 10:29:21;;;;;;;7.00;5.07;;;;;;;30.30;34.83;99835.81;5119408;28;20042;-68
2023/08/19 10:31:46;;;;;;;7.05;4.00;;;;;;;30.22;33.93;99829.06;5119394;28;20214;-69
2023/08/19 10:34:25;;;;;;;4.22;3.67;;;;;;;30.28;33.96;99824.38;5119228;28;20035;-69
2023/08/19 10:37:08;;;;;;;5.18;3.60;;;;;;;30.29;35.19;99823.25;5118703;28;20103;-69
2023/08/19 10:39:35;;;;;;;5.10;3.80;;;;;;;30.30;35.15;99819.44;5118916;28;20023;-70
2023/08/19 10:42:00;;;;;;;3.95;3.47;;;;;;;30.36;34.74;99815.53;5118560;28;20042;-70
2023/08/19 10:44:31;;;;;;;4.07;3.67;;;;;;;30.43;34.62;99805.88;5118676;28;20039;-69
2023/08/19 10:47:15;;;;;;;4.97;3.85;;;;;;;30.49;34.93;99821.09;5118541;28;20073;-69
2023/08/19 10:49:41;;;;;;;6.18;3.85;;;;;;;30.55;33.88;99805.47;5118889;28;20043;-68
2023/08/19 10:52:07;;;;;;;7.43;3.97;;;;;;;30.59;34.09;99806.53;5118646;28;20100;-69
2023/08/19 10:54:40;;;;;;;4.35;3.30;;;;;;;30.65;34.72;99805.38;5118856;28;20791;-68
2023/08/19 10:57:08;;;;;;;7.05;3.58;;;;;;;30.62;34.47;99805.13;5118424;28;20036;-69
2023/08/19 10:59:35;;;;;;;5.00;4.10;;;;;;;30.66;34.43;99804.25;5118913;28;20096;-68
2023/08/19 11:02:01;;;;;;;3.65;3.30;;;;;;;30.71;34.18;99798.72;5118309;28;20054;-69
2023/08/19 11:04:26;;;;;;;5.32;4.05;;;;;;;30.77;34.77;99796.75;5118230;28;20051;-69
2023/08/19 11:06:53;;;;;;;4.10;3.15;;;;;;;30.71;33.99;99797.91;5118140;28;20325;-69
2023/08/19 11:09:19;;;;;;;7.95;3.90;;;;;;;30.69;33.94;99791.94;5117820;28;20036;-69
2023/08/19 11:11:44;;;;;;;3.67;3.22;;;;;;;30.73;34.21;99804.72;5118123;28;20101;-69
2023/08/19 11:14:17;;;;;;;4.22;3.08;;;;;;;30.65;33.49;99805.38;5118659;28;20044;-68
2023/08/19 11:16:56;;;;;;;4.85;3.67;;;;;;;30.57;33.81;99800.53;5117540;28;20135;-68
2023/08/19 11:19:22;;;;;;;3.53;3.22;;;;;;;30.59;34.32;99792.88;5118217;28;20027;-69
2023/08/19 11:21:49;;;;;;;4.28;3.58;;;;;;;30.60;34.50;99794.50;5118239;28;20035;-68
2023/08/19 11:24:15;;;;;;;4.25;3.30;;;;;;;30.65;34.29;99793.63;5118410;28;20036;-68
2023/08/19 11:26:45;;;;;;;5.65;3.63;;;;;;;30.71;34.87;99785.06;5117881;28;20039;-69
2023/08/19 11:29:11;;;;;;;4.72;3.20;;;;;;;30.77;35.64;99777.59;5118212;28;20325;-69